West Point, Virginia
Current Conditions -  °F | °C
As of 4:15 PM on Sunday 21 Dec 2014 (Local Time) from KFYJ Reporting Station
Clear Clear  
Wind Chill:   Ceiling: Unl
Heat Index:   Visibility: 10mi
Dew Point: -4°   Wind: 5mph
Humidity: 46%   Direction: 80°E
Pressure: 30.31"   Gusts: NA
Location:  37.53°N, 76.8°W
Report Text: KFYJ 212115Z AUTO 08004KT 10SM CLR 07/M04 A3031 RMK AO2 T00741036
Loading
Personal Weather Stations






























Interactive Weather Map New forecast layout! Learn more

10-Day Weather Forecast

Advertisements
Track Severe Weather on mobile